createdAt,value
2023-01-25T00:01:07.277Z,59.91
2023-01-25T00:03:35.188Z,59.85
2023-01-25T00:06:03.262Z,58.88
2023-01-25T00:08:31.129Z,57.48
2023-01-25T00:10:58.987Z,58.19
2023-01-25T00:13:27.177Z,58.76
2023-01-25T00:16:01.636Z,59.54
2023-01-25T00:18:29.644Z,60.84
2023-01-25T00:20:57.611Z,62.58
2023-01-25T00:23:25.446Z,64.53
2023-01-25T00:26:00.544Z,64.68
2023-01-25T00:28:28.410Z,64.27
2023-01-25T00:31:08.313Z,63.63
2023-01-25T00:33:56.022Z,63.10
2023-01-25T00:36:27.802Z,62.44
2023-01-25T00:38:58.004Z,62.11
2023-01-25T00:41:26.586Z,61.69
2023-01-25T00:43:54.735Z,61.48
2023-01-25T00:46:23.493Z,60.53
2023-01-25T00:48:54.919Z,60.59
2023-01-25T00:51:24.076Z,60.57
2023-01-25T00:53:52.266Z,60.41
2023-01-25T00:56:20.438Z,60.19
2023-01-25T00:58:48.771Z,59.80
2023-01-25T01:01:18.205Z,58.65
2023-01-25T01:03:46.110Z,57.11
2023-01-25T01:06:14.822Z,57.29
2023-01-25T01:08:42.875Z,57.87
2023-01-25T01:11:13.160Z,59.55
2023-01-25T01:13:41.209Z,60.84
2023-01-25T01:16:12.189Z,60.83
2023-01-25T01:18:43.642Z,61.92
2023-01-25T01:21:13.496Z,63.92
2023-01-25T01:23:42.054Z,63.87
2023-01-25T01:26:14.880Z,63.15
2023-01-25T01:28:42.948Z,62.58
2023-01-25T01:31:23.294Z,61.71
2023-01-25T01:34:07.671Z,58.96
2023-01-25T01:36:35.511Z,57.02
2023-01-25T01:39:03.635Z,58.79
2023-01-25T01:41:31.444Z,59.16
2023-01-25T01:44:00.180Z,59.70
2023-01-25T01:46:30.187Z,60.49
2023-01-25T01:49:06.545Z,60.80
2023-01-25T01:52:00.267Z,62.82
2023-01-25T01:54:36.520Z,64.78
2023-01-25T01:57:12.295Z,64.56
2023-01-25T01:59:56.303Z,63.47
2023-01-25T02:02:26.212Z,63.21
2023-01-25T02:04:59.706Z,62.52
2023-01-25T02:07:34.997Z,61.54
2023-01-25T02:10:11.414Z,60.43
2023-01-25T02:12:41.435Z,60.17
2023-01-25T02:15:10.691Z,59.82
2023-01-25T02:17:41.536Z,58.18
2023-01-25T02:20:45.542Z,56.94
2023-01-25T02:23:22.088Z,57.29
2023-01-25T02:25:50.499Z,58.41
2023-01-25T02:28:20.680Z,59.37
2023-01-25T02:30:49.027Z,60.21
2023-01-25T02:33:17.315Z,60.94
2023-01-25T02:35:53.928Z,62.12
2023-01-25T02:38:22.286Z,64.03
2023-01-25T02:40:57.884Z,64.05
2023-01-25T02:43:31.080Z,63.36
2023-01-25T02:46:22.726Z,62.43
2023-01-25T02:48:50.662Z,61.97
2023-01-25T02:51:18.683Z,60.60
2023-01-25T02:53:47.731Z,60.34
2023-01-25T02:56:16.830Z,59.26
2023-01-25T02:58:45.541Z,56.99
2023-01-25T03:01:14.524Z,57.40
2023-01-25T03:03:43.464Z,58.05
2023-01-25T03:06:12.020Z,58.79
2023-01-25T03:08:40.706Z,58.87
2023-01-25T03:11:08.998Z,59.52
2023-01-25T03:13:37.857Z,60.54
2023-01-25T03:16:09.091Z,61.47
2023-01-25T03:18:38.237Z,63.44
2023-01-25T03:21:07.192Z,64.64
2023-01-25T03:23:35.839Z,63.96
2023-01-25T03:26:13.318Z,63.60
2023-01-25T03:28:51.529Z,61.68
2023-01-25T03:31:20.570Z,61.67
2023-01-25T03:33:49.883Z,61.02
2023-01-25T03:36:19.280Z,60.60
2023-01-25T03:38:47.250Z,60.05
2023-01-25T03:41:15.491Z,58.66
2023-01-25T03:43:43.525Z,57.03
2023-01-25T03:46:11.866Z,57.88
2023-01-25T03:48:40.013Z,58.42
2023-01-25T03:51:08.038Z,58.74
2023-01-25T03:53:37.211Z,59.80
2023-01-25T03:56:12.117Z,60.44
2023-01-25T03:58:40.956Z,60.18
2023-01-25T04:01:09.398Z,61.92
2023-01-25T04:03:37.551Z,63.64
2023-01-25T04:06:06.611Z,64.94
2023-01-25T04:08:36.007Z,64.62
2023-01-25T04:11:09.961Z,64.00
2023-01-25T04:13:40.028Z,62.93
2023-01-25T04:16:12.371Z,62.26
2023-01-25T04:19:09.813Z,61.81
2023-01-25T04:21:38.056Z,60.91
2023-01-25T04:24:06.875Z,59.84
2023-01-25T04:26:36.687Z,57.45
2023-01-25T04:29:04.627Z,56.72
2023-01-25T04:31:33.948Z,57.34
2023-01-25T04:34:02.336Z,58.04
2023-01-25T04:36:30.362Z,59.44
2023-01-25T04:38:59.158Z,59.58
2023-01-25T04:41:29.387Z,60.36
2023-01-25T04:43:58.816Z,63.04
2023-01-25T04:46:26.907Z,64.02
2023-01-25T04:48:54.959Z,63.99
2023-01-25T04:51:22.873Z,63.14
2023-01-25T04:53:50.899Z,62.40
2023-01-25T04:56:18.964Z,62.03
2023-01-25T04:58:53.971Z,61.60
2023-01-25T05:01:22.899Z,61.11
2023-01-25T05:03:51.373Z,59.44
2023-01-25T05:06:38.689Z,57.73
2023-01-25T05:09:07.163Z,57.56
2023-01-25T05:11:36.016Z,57.94
2023-01-25T05:14:08.465Z,59.16
2023-01-25T05:16:36.768Z,59.65
2023-01-25T05:19:04.931Z,60.44
2023-01-25T05:22:00.121Z,60.69
2023-01-25T05:24:36.198Z,61.24
2023-01-25T05:27:08.107Z,63.06
2023-01-25T05:30:02.101Z,65.11
2023-01-25T05:32:50.292Z,64.84
2023-01-25T05:35:18.716Z,63.79
2023-01-25T05:37:46.872Z,62.69
2023-01-25T05:40:19.222Z,62.27
2023-01-25T05:42:54.306Z,61.39
2023-01-25T05:45:22.360Z,61.09
2023-01-25T05:47:57.582Z,60.77
2023-01-25T05:50:27.104Z,59.22
2023-01-25T05:53:04.696Z,57.40
2023-01-25T05:55:35.713Z,58.57
2023-01-25T05:58:05.896Z,58.92
2023-01-25T06:00:33.754Z,59.21
2023-01-25T06:03:05.376Z,60.46
2023-01-25T06:05:36.836Z,60.55
2023-01-25T06:08:04.897Z,61.30
2023-01-25T06:10:42.072Z,62.53
2023-01-25T06:13:10.024Z,64.46
2023-01-25T06:15:37.906Z,64.46
2023-01-25T06:18:45.175Z,63.74
2023-01-25T06:21:22.692Z,62.90
2023-01-25T06:23:51.003Z,62.35
2023-01-25T06:26:18.963Z,61.20
2023-01-25T06:28:47.084Z,60.34
2023-01-25T06:31:17.334Z,60.33
2023-01-25T06:33:49.958Z,59.86
2023-01-25T06:36:20.940Z,58.97
2023-01-25T06:38:50.848Z,57.75
2023-01-25T06:41:19.903Z,58.32
2023-01-25T06:43:51.239Z,58.87
2023-01-25T06:46:20.530Z,59.55
2023-01-25T06:48:48.603Z,60.65
2023-01-25T06:51:18.273Z,60.92
2023-01-25T06:53:47.786Z,62.14
2023-01-25T06:56:21.947Z,63.82
2023-01-25T06:58:50.737Z,64.07
2023-01-25T07:01:21.507Z,64.03
2023-01-25T07:03:51.144Z,61.99
2023-01-25T07:06:19.750Z,61.78
2023-01-25T07:08:48.309Z,61.75
2023-01-25T07:11:19.062Z,61.39
2023-01-25T07:13:47.934Z,60.99
2023-01-25T07:16:20.530Z,60.37
2023-01-25T07:18:48.370Z,58.99
2023-01-25T07:21:20.529Z,57.27
2023-01-25T07:23:49.708Z,58.29
2023-01-25T07:26:25.485Z,58.86
2023-01-25T07:28:53.968Z,59.52
2023-01-25T07:31:21.886Z,60.82
2023-01-25T07:33:51.732Z,61.69
2023-01-25T07:36:20.400Z,63.66
2023-01-25T07:38:48.917Z,64.78
2023-01-25T07:41:16.741Z,63.59
2023-01-25T07:43:44.774Z,63.29
2023-01-25T07:46:14.360Z,61.60
2023-01-25T07:48:50.853Z,61.33
2023-01-25T07:51:27.200Z,61.30
2023-01-25T07:54:01.086Z,60.82
2023-01-25T07:56:31.937Z,60.41
2023-01-25T07:59:02.802Z,58.68
2023-01-25T08:01:34.554Z,57.39
2023-01-25T08:04:04.792Z,57.63
2023-01-25T08:06:36.327Z,58.61
2023-01-25T08:09:08.614Z,59.25
2023-01-25T08:11:36.447Z,61.32
2023-01-25T08:14:04.611Z,61.98
2023-01-25T08:16:33.605Z,63.16
2023-01-25T08:19:03.404Z,63.00
2023-01-25T08:21:34.154Z,62.62
2023-01-25T08:24:05.519Z,61.89
2023-01-25T08:26:35.016Z,61.28
2023-01-25T08:29:03.978Z,60.98
2023-01-25T08:31:34.179Z,60.56
2023-01-25T08:34:02.311Z,59.97
2023-01-25T08:36:30.573Z,59.00
2023-01-25T08:39:07.012Z,57.20
2023-01-25T08:41:35.627Z,57.77
2023-01-25T08:44:05.592Z,58.11
2023-01-25T08:46:34.659Z,58.47
2023-01-25T08:49:03.408Z,59.20
2023-01-25T08:51:33.478Z,60.11
2023-01-25T08:54:06.334Z,61.23
2023-01-25T08:56:37.872Z,62.78
2023-01-25T08:59:07.415Z,64.02
2023-01-25T09:01:35.676Z,63.94
2023-01-25T09:04:03.964Z,62.98
2023-01-25T09:06:33.092Z,62.24
2023-01-25T09:09:00.994Z,61.75
2023-01-25T09:11:29.111Z,60.99
2023-01-25T09:13:57.029Z,60.23
2023-01-25T09:16:29.442Z,59.33
2023-01-25T09:19:03.357Z,57.11
2023-01-25T09:21:32.925Z,57.86
2023-01-25T09:24:08.782Z,58.89
2023-01-25T09:26:40.873Z,59.08
2023-01-25T09:29:12.863Z,59.66
2023-01-25T09:31:43.724Z,60.51
2023-01-25T09:34:38.741Z,61.02
2023-01-25T09:37:06.614Z,61.48
2023-01-25T09:39:34.556Z,62.97
2023-01-25T09:42:21.545Z,64.21
2023-01-25T09:45:12.203Z,63.91
2023-01-25T09:47:44.355Z,63.21
2023-01-25T09:50:34.755Z,62.42
2023-01-25T09:53:21.880Z,61.87
2023-01-25T09:55:55.791Z,61.17
2023-01-25T09:58:33.388Z,60.28
2023-01-25T10:01:15.685Z,59.12
2023-01-25T10:03:53.344Z,57.65
2023-01-25T10:06:23.775Z,58.51
2023-01-25T10:09:00.727Z,57.22
2023-01-25T10:11:31.732Z,59.01
2023-01-25T10:14:00.576Z,60.88
2023-01-25T10:16:36.982Z,60.90
2023-01-25T10:19:17.222Z,60.87
2023-01-25T10:22:19.819Z,61.66
2023-01-25T10:25:21.338Z,62.91
2023-01-25T10:28:14.640Z,64.52
2023-01-25T10:30:56.090Z,63.12
2023-01-25T10:33:24.459Z,61.16
2023-01-25T10:35:52.370Z,61.43
2023-01-25T10:38:28.267Z,60.80
2023-01-25T10:41:14.246Z,59.57
2023-01-25T10:43:42.066Z,57.63
2023-01-25T10:46:28.789Z,57.34
2023-01-25T10:48:57.858Z,57.68
2023-01-25T10:51:35.521Z,58.29
2023-01-25T10:54:06.325Z,59.16
2023-01-25T10:56:39.378Z,60.62
2023-01-25T10:59:28.512Z,60.95
2023-01-25T11:01:58.324Z,61.21
2023-01-25T11:04:36.965Z,63.13
2023-01-25T11:07:06.387Z,64.25
2023-01-25T11:09:39.201Z,63.97
2023-01-25T11:12:20.987Z,63.10
2023-01-25T11:14:50.348Z,62.31
2023-01-25T11:17:26.423Z,61.15
2023-01-25T11:20:23.500Z,60.54
2023-01-25T11:22:56.576Z,59.00
2023-01-25T11:25:28.372Z,57.18
2023-01-25T11:28:23.107Z,57.36
2023-01-25T11:30:53.277Z,57.79
2023-01-25T11:33:22.670Z,57.77
2023-01-25T11:36:33.325Z,59.29
2023-01-25T11:39:22.201Z,58.65
2023-01-25T11:42:14.883Z,60.52
2023-01-25T11:45:14.138Z,60.80
2023-01-25T11:47:46.366Z,61.46
2023-01-25T11:50:39.180Z,63.28
2023-01-25T11:53:33.501Z,64.80
2023-01-25T11:56:13.642Z,62.61
2023-01-25T11:58:50.753Z,60.86
2023-01-25T12:01:33.747Z,61.00
2023-01-25T12:04:27.651Z,60.82
2023-01-25T12:07:10.584Z,60.38
2023-01-25T12:09:47.164Z,58.90
2023-01-25T12:12:49.606Z,57.20
2023-01-25T12:15:46.121Z,56.90
2023-01-25T12:18:32.814Z,57.31
2023-01-25T12:21:00.539Z,58.21
2023-01-25T12:23:31.346Z,58.11
2023-01-25T12:26:21.029Z,59.90
2023-01-25T12:29:38.106Z,59.76
2023-01-25T12:32:31.255Z,60.20
2023-01-25T12:35:22.540Z,61.60
2023-01-25T12:37:56.201Z,63.16
2023-01-25T12:40:57.087Z,64.70
2023-01-25T12:43:33.082Z,64.41
2023-01-25T12:46:11.056Z,63.33
2023-01-25T12:48:44.086Z,61.68
2023-01-25T12:51:12.454Z,61.06
2023-01-25T12:53:44.163Z,60.60
2023-01-25T12:56:29.146Z,60.21
2023-01-25T12:59:04.008Z,58.82
2023-01-25T13:01:54.510Z,56.88
2023-01-25T13:04:55.075Z,57.11
2023-01-25T13:07:27.636Z,57.45
2023-01-25T13:10:03.213Z,58.45
2023-01-25T13:12:54.823Z,59.02
2023-01-25T13:15:41.231Z,59.04
2023-01-25T13:18:27.842Z,60.28
2023-01-25T13:20:58.252Z,61.25
2023-01-25T13:23:33.988Z,62.55
2023-01-25T13:26:29.850Z,64.28
2023-01-25T13:29:01.506Z,63.58
2023-01-25T13:31:51.032Z,62.39
2023-01-25T13:34:39.550Z,61.92
2023-01-25T13:37:25.794Z,61.38
2023-01-25T13:40:13.684Z,60.92
2023-01-25T13:42:42.794Z,60.67
2023-01-25T13:45:21.462Z,59.01
2023-01-25T13:48:14.436Z,56.52
2023-01-25T13:50:51.616Z,56.48
2023-01-25T13:53:23.024Z,57.80
2023-01-25T13:55:56.931Z,58.50
2023-01-25T13:58:30.115Z,58.92
2023-01-25T14:01:06.662Z,59.53
2023-01-25T14:03:46.843Z,60.61
2023-01-25T14:06:19.094Z,61.06
2023-01-25T14:08:49.167Z,62.45
2023-01-25T14:11:26.963Z,63.96
2023-01-25T14:14:18.536Z,64.03
2023-01-25T14:16:46.902Z,63.51
2023-01-25T14:19:23.494Z,62.24
2023-01-25T14:22:17.810Z,61.61
2023-01-25T14:24:46.718Z,61.23
2023-01-25T14:27:16.842Z,60.31
2023-01-25T14:29:49.194Z,59.02
2023-01-25T14:32:21.531Z,57.15
2023-01-25T14:34:49.667Z,56.94
2023-01-25T14:37:22.346Z,57.63
2023-01-25T14:39:52.172Z,58.31
2023-01-25T14:42:22.883Z,58.96
2023-01-25T14:44:50.843Z,59.66
2023-01-25T14:47:32.661Z,59.75
2023-01-25T14:50:34.904Z,60.69
2023-01-25T14:53:19.911Z,60.88
2023-01-25T14:55:49.985Z,62.77
2023-01-25T14:58:21.393Z,64.67
2023-01-25T15:01:01.827Z,64.66
2023-01-25T15:03:31.491Z,64.19
2023-01-25T15:06:04.575Z,63.36
2023-01-25T15:08:39.242Z,62.53
2023-01-25T15:11:48.903Z,61.94
2023-01-25T15:14:22.345Z,61.71
2023-01-25T15:16:50.286Z,60.71
2023-01-25T15:19:30.656Z,59.34
2023-01-25T15:22:00.641Z,57.47
2023-01-25T15:24:28.871Z,57.53
2023-01-25T15:26:56.908Z,58.12
2023-01-25T15:29:28.937Z,59.06
2023-01-25T15:31:56.871Z,59.85
2023-01-25T15:34:32.618Z,60.61
2023-01-25T15:37:00.437Z,60.67
2023-01-25T15:39:28.996Z,61.03
2023-01-25T15:41:57.040Z,61.70
2023-01-25T15:44:24.955Z,62.90
2023-01-25T15:46:53.804Z,64.75
2023-01-25T15:49:32.413Z,64.81
2023-01-25T15:52:00.260Z,64.03
2023-01-25T15:54:28.183Z,63.41
2023-01-25T15:56:59.102Z,62.79
2023-01-25T15:59:27.661Z,62.02
2023-01-25T16:01:55.603Z,61.56
2023-01-25T16:04:25.315Z,60.77
2023-01-25T16:06:55.099Z,60.54
2023-01-25T16:09:31.156Z,60.20
2023-01-25T16:12:01.535Z,58.90
2023-01-25T16:14:31.546Z,57.32
2023-01-25T16:17:03.092Z,57.73
2023-01-25T16:19:31.807Z,58.54
2023-01-25T16:21:59.903Z,59.26
2023-01-25T16:24:28.063Z,59.82
2023-01-25T16:26:58.162Z,60.58
2023-01-25T16:29:27.000Z,61.00
2023-01-25T16:31:55.373Z,61.65
2023-01-25T16:34:23.497Z,62.77
2023-01-25T16:36:51.431Z,64.51
2023-01-25T16:39:22.338Z,64.44
2023-01-25T16:41:50.479Z,63.96
2023-01-25T16:44:18.323Z,63.23
2023-01-25T16:46:48.398Z,62.40
2023-01-25T16:49:20.670Z,61.91
2023-01-25T16:51:50.356Z,61.35
2023-01-25T16:54:22.898Z,60.94
2023-01-25T16:56:52.487Z,60.53
2023-01-25T16:59:23.011Z,59.45
2023-01-25T17:01:52.316Z,57.92
2023-01-25T17:04:20.756Z,57.92
2023-01-25T17:06:51.075Z,58.59
2023-01-25T17:09:25.417Z,59.60
2023-01-25T17:11:55.551Z,60.05
2023-01-25T17:14:23.619Z,60.55
2023-01-25T17:16:55.604Z,61.52
2023-01-25T17:19:23.793Z,62.76
2023-01-25T17:21:51.676Z,64.36
2023-01-25T17:24:21.929Z,64.51
2023-01-25T17:26:51.214Z,63.82
2023-01-25T17:29:19.095Z,63.23
2023-01-25T17:31:46.999Z,62.59
2023-01-25T17:34:20.035Z,61.84
2023-01-25T17:36:49.632Z,61.46
2023-01-25T17:39:19.842Z,61.02
2023-01-25T17:41:49.602Z,60.43
2023-01-25T17:44:22.732Z,60.09
2023-01-25T17:46:51.239Z,58.81
2023-01-25T17:49:19.489Z,57.12
2023-01-25T17:51:47.578Z,57.07
2023-01-25T17:54:15.561Z,57.76
2023-01-25T17:56:43.819Z,58.51
2023-01-25T17:59:19.167Z,59.16
2023-01-25T18:01:48.373Z,59.84
2023-01-25T18:04:17.750Z,60.91
2023-01-25T18:06:45.820Z,62.24
2023-01-25T18:09:13.768Z,64.23
2023-01-25T18:11:41.893Z,64.35
2023-01-25T18:14:17.063Z,64.00
2023-01-25T18:16:45.172Z,63.20
2023-01-25T18:19:13.537Z,62.51
2023-01-25T18:21:42.509Z,61.89
2023-01-25T18:24:34.159Z,61.43
2023-01-25T18:27:23.638Z,61.18
2023-01-25T18:30:16.721Z,60.79
2023-01-25T18:32:44.575Z,60.21
2023-01-25T18:35:12.673Z,58.79
2023-01-25T18:37:43.809Z,57.65
2023-01-25T18:40:14.117Z,57.71
2023-01-25T18:42:42.269Z,58.31
2023-01-25T18:45:10.808Z,59.02
2023-01-25T18:47:39.256Z,59.72
2023-01-25T18:50:13.968Z,60.51
2023-01-25T18:52:42.951Z,61.11
2023-01-25T18:55:15.173Z,62.61
2023-01-25T18:57:46.141Z,64.57
2023-01-25T19:00:16.717Z,64.60
2023-01-25T19:02:44.590Z,64.06
2023-01-25T19:05:14.468Z,63.23
2023-01-25T19:07:43.469Z,62.45
2023-01-25T19:10:11.780Z,61.75
2023-01-25T19:12:40.110Z,61.27
2023-01-25T19:15:08.939Z,60.79
2023-01-25T19:17:38.304Z,60.64
2023-01-25T19:20:06.807Z,60.35
2023-01-25T19:22:34.668Z,59.19
2023-01-25T19:25:02.515Z,57.63
2023-01-25T19:27:30.550Z,57.86
2023-01-25T19:29:58.390Z,58.48
2023-01-25T19:32:26.197Z,59.35
2023-01-25T19:34:54.092Z,59.81
2023-01-25T19:37:21.959Z,60.70
2023-01-25T19:39:51.093Z,61.26
2023-01-25T19:42:19.006Z,62.37
2023-01-25T19:44:48.915Z,64.49
2023-01-25T19:47:16.806Z,64.66
2023-01-25T19:49:44.700Z,64.15
2023-01-25T19:52:12.568Z,63.32
2023-01-25T19:54:40.698Z,62.40
2023-01-25T19:57:09.234Z,61.84
2023-01-25T19:59:37.157Z,61.44
2023-01-25T20:02:05.360Z,61.00
2023-01-25T20:04:33.191Z,60.71
2023-01-25T20:07:01.015Z,60.33
2023-01-25T20:09:28.926Z,59.35
2023-01-25T20:11:58.410Z,57.85
2023-01-25T20:14:27.015Z,58.03
2023-01-25T20:16:54.873Z,58.67
2023-01-25T20:19:22.838Z,59.51
2023-01-25T20:21:51.048Z,60.09
2023-01-25T20:24:19.005Z,60.92
2023-01-25T20:26:47.568Z,61.50
2023-01-25T20:29:15.653Z,62.91
2023-01-25T20:31:45.745Z,64.91
2023-01-25T20:34:22.336Z,64.91
2023-01-25T20:36:51.314Z,64.27
2023-01-25T20:39:20.991Z,63.59
2023-01-25T20:41:53.554Z,62.98
2023-01-25T20:44:21.780Z,62.41
2023-01-25T20:46:52.185Z,61.81
2023-01-25T20:49:22.530Z,61.39
2023-01-25T20:51:50.350Z,60.73
2023-01-25T20:54:18.364Z,60.36
2023-01-25T20:56:50.667Z,60.17
2023-01-25T20:59:19.518Z,59.11
2023-01-25T21:01:47.632Z,57.74
2023-01-25T21:04:15.715Z,58.11
2023-01-25T21:06:43.648Z,58.91
2023-01-25T21:09:12.109Z,60.02
2023-01-25T21:11:39.965Z,60.70
2023-01-25T21:14:07.953Z,61.22
2023-01-25T21:16:35.873Z,62.52
2023-01-25T21:19:06.494Z,64.36
2023-01-25T21:21:35.108Z,64.33
2023-01-25T21:24:05.361Z,63.86
2023-01-25T21:26:35.286Z,63.21
2023-01-25T21:29:04.532Z,62.82
2023-01-25T21:31:38.904Z,62.36
2023-01-25T21:34:06.956Z,61.90
2023-01-25T21:36:34.923Z,61.02
2023-01-25T21:39:04.107Z,60.61
2023-01-25T21:41:33.881Z,60.07
2023-01-25T21:44:21.755Z,59.12
2023-01-25T21:47:16.248Z,57.49
2023-01-25T21:49:56.435Z,57.99
2023-01-25T21:52:24.556Z,58.71
2023-01-25T21:54:52.810Z,59.72
2023-01-25T21:57:20.744Z,60.41
2023-01-25T21:59:49.027Z,61.25
2023-01-25T22:02:17.144Z,62.51
2023-01-25T22:04:45.353Z,64.42
2023-01-25T22:07:13.156Z,64.58
2023-01-25T22:09:41.066Z,64.11
2023-01-25T22:12:09.415Z,63.44
2023-01-25T22:14:37.272Z,62.80
2023-01-25T22:17:05.300Z,62.29
2023-01-25T22:19:33.579Z,61.81
2023-01-25T22:22:01.751Z,61.29
2023-01-25T22:24:29.614Z,61.05
2023-01-25T22:27:03.353Z,60.82
2023-01-25T22:29:33.148Z,60.49
2023-01-25T22:32:02.443Z,60.16
2023-01-25T22:34:30.453Z,59.14
2023-01-25T22:36:58.375Z,57.84
2023-01-25T22:39:27.307Z,57.87
2023-01-25T22:41:56.500Z,58.51
2023-01-25T22:44:24.428Z,59.38
2023-01-25T22:46:53.925Z,60.16
2023-01-25T22:49:21.848Z,60.85
2023-01-25T22:51:49.782Z,61.53
2023-01-25T22:54:17.922Z,62.82
2023-01-25T22:56:45.803Z,64.76
2023-01-25T22:59:20.033Z,64.96
2023-01-25T23:01:48.032Z,64.20
2023-01-25T23:04:15.965Z,63.40
2023-01-25T23:06:43.909Z,62.79
2023-01-25T23:09:11.911Z,62.50
2023-01-25T23:11:39.799Z,62.15
2023-01-25T23:14:30.609Z,61.72
2023-01-25T23:17:17.259Z,61.31
2023-01-25T23:19:45.676Z,60.93
2023-01-25T23:22:13.627Z,60.63
2023-01-25T23:24:41.580Z,60.12
2023-01-25T23:27:09.475Z,59.16
2023-01-25T23:29:37.621Z,57.79
2023-01-25T23:32:05.969Z,57.92
2023-01-25T23:34:37.169Z,58.93
2023-01-25T23:37:05.125Z,60.05
2023-01-25T23:39:33.234Z,61.08
2023-01-25T23:42:01.267Z,62.32
2023-01-25T23:44:29.425Z,64.03
2023-01-25T23:46:57.499Z,64.12
2023-01-25T23:49:25.382Z,63.69
2023-01-25T23:51:53.208Z,63.04
2023-01-25T23:54:21.111Z,62.65
2023-01-25T23:56:48.962Z,62.26
2023-01-25T23:59:16.785Z,61.80
